sensor_id;sensor_type;location;lat;lon;timestamp;P1;durP1;ratioP1;P2;durP2;ratioP2
62861;SDS011;48953;53.110;5.592;2022-08-19T00:01:53;16.10;;;8.60;;
62861;SDS011;48953;53.110;5.592;2022-08-19T00:04:21;11.52;;;8.68;;
62861;SDS011;48953;53.110;5.592;2022-08-19T00:06:50;14.77;;;8.73;;
62861;SDS011;48953;53.110;5.592;2022-08-19T00:09:16;12.43;;;8.07;;
62861;SDS011;48953;53.110;5.592;2022-08-19T00:11:44;13.93;;;8.43;;
62861;SDS011;48953;53.110;5.592;2022-08-19T00:14:12;15.02;;;8.80;;
62861;SDS011;48953;53.110;5.592;2022-08-19T00:16:41;12.63;;;8.32;;
62861;SDS011;48953;53.110;5.592;2022-08-19T00:19:09;13.30;;;8.65;;
62861;SDS011;48953;53.110;5.592;2022-08-19T00:21:35;11.55;;;7.45;;
62861;SDS011;48953;53.110;5.592;2022-08-19T00:24:04;11.85;;;7.88;;
62861;SDS011;48953;53.110;5.592;2022-08-19T00:26:31;11.32;;;7.43;;
62861;SDS011;48953;53.110;5.592;2022-08-19T00:28:57;17.25;;;8.32;;
62861;SDS011;48953;53.110;5.592;2022-08-19T00:31:22;16.02;;;8.75;;
62861;SDS011;48953;53.110;5.592;2022-08-19T00:33:50;15.43;;;8.02;;
62861;SDS011;48953;53.110;5.592;2022-08-19T00:36:15;15.73;;;9.10;;
62861;SDS011;48953;53.110;5.592;2022-08-19T00:38:41;14.57;;;8.98;;
62861;SDS011;48953;53.110;5.592;2022-08-19T00:41:08;14.68;;;8.52;;
62861;SDS011;48953;53.110;5.592;2022-08-19T00:43:35;11.52;;;8.02;;
62861;SDS011;48953;53.110;5.592;2022-08-19T00:46:00;14.77;;;8.35;;
62861;SDS011;48953;53.110;5.592;2022-08-19T00:48:29;13.07;;;7.47;;
62861;SDS011;48953;53.110;5.592;2022-08-19T00:50:56;12.57;;;8.10;;
62861;SDS011;48953;53.110;5.592;2022-08-19T00:53:24;15.23;;;8.88;;
62861;SDS011;48953;53.110;5.592;2022-08-19T00:55:52;16.40;;;9.07;;
62861;SDS011;48953;53.110;5.592;2022-08-19T00:58:22;15.30;;;8.77;;
62861;SDS011;48953;53.110;5.592;2022-08-19T01:00:52;15.32;;;8.57;;
62861;SDS011;48953;53.110;5.592;2022-08-19T01:05:48;15.90;;;9.43;;
62861;SDS011;48953;53.110;5.592;2022-08-19T01:08:16;15.02;;;9.13;;
62861;SDS011;48953;53.110;5.592;2022-08-19T01:10:44;17.83;;;9.82;;
62861;SDS011;48953;53.110;5.592;2022-08-19T01:13:20;15.32;;;9.15;;
62861;SDS011;48953;53.110;5.592;2022-08-19T01:15:52;13.90;;;9.35;;
62861;SDS011;48953;53.110;5.592;2022-08-19T01:18:21;15.30;;;9.05;;
62861;SDS011;48953;53.110;5.592;2022-08-19T01:20:48;14.98;;;8.55;;
62861;SDS011;48953;53.110;5.592;2022-08-19T01:23:15;15.65;;;8.38;;
62861;SDS011;48953;53.110;5.592;2022-08-19T01:28:07;14.63;;;8.77;;
62861;SDS011;48953;53.110;5.592;2022-08-19T01:30:34;13.93;;;8.15;;
62861;SDS011;48953;53.110;5.592;2022-08-19T01:33:01;13.20;;;8.48;;
62861;SDS011;48953;53.110;5.592;2022-08-19T01:35:30;13.02;;;8.43;;
62861;SDS011;48953;53.110;5.592;2022-08-19T01:38:00;11.73;;;7.63;;
62861;SDS011;48953;53.110;5.592;2022-08-19T01:40:32;12.45;;;8.13;;
62861;SDS011;48953;53.110;5.592;2022-08-19T01:42:59;15.82;;;8.55;;
62861;SDS011;48953;53.110;5.592;2022-08-19T01:45:26;12.90;;;8.40;;
62861;SDS011;48953;53.110;5.592;2022-08-19T01:47:54;13.57;;;8.77;;
62861;SDS011;48953;53.110;5.592;2022-08-19T01:50:21;13.48;;;8.45;;
62861;SDS011;48953;53.110;5.592;2022-08-19T01:52:46;12.95;;;8.13;;
62861;SDS011;48953;53.110;5.592;2022-08-19T01:55:15;13.82;;;8.32;;
62861;SDS011;48953;53.110;5.592;2022-08-19T01:57:44;14.20;;;9.38;;
62861;SDS011;48953;53.110;5.592;2022-08-19T02:00:14;15.20;;;8.23;;
62861;SDS011;48953;53.110;5.592;2022-08-19T02:02:42;13.48;;;8.65;;
62861;SDS011;48953;53.110;5.592;2022-08-19T02:05:08;12.55;;;8.07;;
62861;SDS011;48953;53.110;5.592;2022-08-19T02:07:35;13.98;;;8.55;;
62861;SDS011;48953;53.110;5.592;2022-08-19T02:10:05;16.05;;;8.80;;
62861;SDS011;48953;53.110;5.592;2022-08-19T02:12:35;16.00;;;8.45;;
62861;SDS011;48953;53.110;5.592;2022-08-19T02:15:01;13.05;;;8.30;;
62861;SDS011;48953;53.110;5.592;2022-08-19T02:17:28;13.88;;;8.38;;
62861;SDS011;48953;53.110;5.592;2022-08-19T02:19:54;19.98;;;8.63;;
62861;SDS011;48953;53.110;5.592;2022-08-19T02:22:21;13.57;;;8.20;;
62861;SDS011;48953;53.110;5.592;2022-08-19T02:24:47;13.52;;;8.32;;
62861;SDS011;48953;53.110;5.592;2022-08-19T02:27:13;13.05;;;8.25;;
62861;SDS011;48953;53.110;5.592;2022-08-19T02:29:39;12.80;;;8.30;;
62861;SDS011;48953;53.110;5.592;2022-08-19T02:32:06;16.60;;;8.48;;
62861;SDS011;48953;53.110;5.592;2022-08-19T02:34:32;14.98;;;8.40;;
62861;SDS011;48953;53.110;5.592;2022-08-19T02:36:58;11.52;;;7.47;;
62861;SDS011;48953;53.110;5.592;2022-08-19T02:39:24;13.90;;;8.82;;
62861;SDS011;48953;53.110;5.592;2022-08-19T02:41:49;17.80;;;8.25;;
62861;SDS011;48953;53.110;5.592;2022-08-19T02:44:16;15.40;;;8.45;;
62861;SDS011;48953;53.110;5.592;2022-08-19T02:46:44;16.00;;;8.63;;
62861;SDS011;48953;53.110;5.592;2022-08-19T02:49:11;14.27;;;8.23;;
62861;SDS011;48953;53.110;5.592;2022-08-19T02:51:38;15.80;;;8.98;;
62861;SDS011;48953;53.110;5.592;2022-08-19T02:54:06;14.02;;;8.15;;
62861;SDS011;48953;53.110;5.592;2022-08-19T02:56:37;16.70;;;8.52;;
62861;SDS011;48953;53.110;5.592;2022-08-19T02:59:05;17.00;;;8.70;;
62861;SDS011;48953;53.110;5.592;2022-08-19T03:01:33;14.27;;;8.45;;
62861;SDS011;48953;53.110;5.592;2022-08-19T03:04:00;18.48;;;9.23;;
62861;SDS011;48953;53.110;5.592;2022-08-19T03:06:28;16.08;;;8.68;;
62861;SDS011;48953;53.110;5.592;2022-08-19T03:08:54;17.05;;;8.90;;
62861;SDS011;48953;53.110;5.592;2022-08-19T03:11:27;15.10;;;8.20;;
62861;SDS011;48953;53.110;5.592;2022-08-19T03:13:56;16.77;;;8.73;;
62861;SDS011;48953;53.110;5.592;2022-08-19T03:16:24;14.80;;;8.77;;
62861;SDS011;48953;53.110;5.592;2022-08-19T03:18:51;19.48;;;8.45;;
62861;SDS011;48953;53.110;5.592;2022-08-19T03:21:22;17.35;;;9.07;;
62861;SDS011;48953;53.110;5.592;2022-08-19T03:23:53;14.13;;;7.72;;
62861;SDS011;48953;53.110;5.592;2022-08-19T03:26:19;14.70;;;8.10;;
62861;SDS011;48953;53.110;5.592;2022-08-19T03:28:45;16.45;;;8.90;;
62861;SDS011;48953;53.110;5.592;2022-08-19T03:31:15;16.67;;;8.82;;
62861;SDS011;48953;53.110;5.592;2022-08-19T03:33:43;18.73;;;8.80;;
62861;SDS011;48953;53.110;5.592;2022-08-19T03:36:13;16.35;;;8.60;;
62861;SDS011;48953;53.110;5.592;2022-08-19T03:38:41;14.40;;;8.10;;
62861;SDS011;48953;53.110;5.592;2022-08-19T03:41:11;14.43;;;8.55;;
62861;SDS011;48953;53.110;5.592;2022-08-19T03:46:11;13.30;;;8.48;;
62861;SDS011;48953;53.110;5.592;2022-08-19T03:48:39;17.88;;;8.88;;
62861;SDS011;48953;53.110;5.592;2022-08-19T03:51:07;15.98;;;8.38;;
62861;SDS011;48953;53.110;5.592;2022-08-19T03:53:39;15.07;;;8.13;;
62861;SDS011;48953;53.110;5.592;2022-08-19T03:56:06;17.55;;;9.35;;
62861;SDS011;48953;53.110;5.592;2022-08-19T03:58:34;12.82;;;7.75;;
62861;SDS011;48953;53.110;5.592;2022-08-19T04:01:00;16.17;;;8.85;;
62861;SDS011;48953;53.110;5.592;2022-08-19T04:03:25;17.67;;;9.20;;
62861;SDS011;48953;53.110;5.592;2022-08-19T04:05:54;15.93;;;8.85;;
62861;SDS011;48953;53.110;5.592;2022-08-19T04:08:19;19.92;;;10.15;;
62861;SDS011;48953;53.110;5.592;2022-08-19T04:10:46;20.02;;;10.10;;
62861;SDS011;48953;53.110;5.592;2022-08-19T04:13:13;21.40;;;9.30;;
62861;SDS011;48953;53.110;5.592;2022-08-19T04:15:44;16.98;;;9.40;;
62861;SDS011;48953;53.110;5.592;2022-08-19T04:18:12;19.17;;;10.40;;
62861;SDS011;48953;53.110;5.592;2022-08-19T04:20:41;19.25;;;10.35;;
62861;SDS011;48953;53.110;5.592;2022-08-19T04:23:08;19.13;;;10.73;;
62861;SDS011;48953;53.110;5.592;2022-08-19T04:25:38;26.02;;;11.15;;
62861;SDS011;48953;53.110;5.592;2022-08-19T04:28:05;22.45;;;11.30;;
62861;SDS011;48953;53.110;5.592;2022-08-19T04:30:36;22.05;;;11.80;;
62861;SDS011;48953;53.110;5.592;2022-08-19T04:33:11;26.75;;;11.98;;
62861;SDS011;48953;53.110;5.592;2022-08-19T04:35:39;27.40;;;11.45;;
62861;SDS011;48953;53.110;5.592;2022-08-19T04:38:05;25.13;;;11.73;;
62861;SDS011;48953;53.110;5.592;2022-08-19T04:40:31;24.33;;;11.95;;
62861;SDS011;48953;53.110;5.592;2022-08-19T04:43:16;23.80;;;11.88;;
62861;SDS011;48953;53.110;5.592;2022-08-19T04:45:42;21.92;;;11.00;;
62861;SDS011;48953;53.110;5.592;2022-08-19T04:48:09;25.20;;;11.65;;
62861;SDS011;48953;53.110;5.592;2022-08-19T04:50:35;27.38;;;12.85;;
62861;SDS011;48953;53.110;5.592;2022-08-19T04:53:01;24.75;;;11.40;;
62861;SDS011;48953;53.110;5.592;2022-08-19T04:55:28;24.65;;;11.73;;
62861;SDS011;48953;53.110;5.592;2022-08-19T04:57:54;25.45;;;12.82;;
62861;SDS011;48953;53.110;5.592;2022-08-19T05:00:19;27.27;;;12.48;;
62861;SDS011;48953;53.110;5.592;2022-08-19T05:02:45;33.20;;;12.98;;
62861;SDS011;48953;53.110;5.592;2022-08-19T05:05:10;28.38;;;13.02;;
62861;SDS011;48953;53.110;5.592;2022-08-19T05:07:37;26.13;;;12.77;;
62861;SDS011;48953;53.110;5.592;2022-08-19T05:10:04;26.98;;;12.57;;
62861;SDS011;48953;53.110;5.592;2022-08-19T05:12:30;19.70;;;9.23;;
62861;SDS011;48953;53.110;5.592;2022-08-19T05:14:56;18.05;;;10.43;;
62861;SDS011;48953;53.110;5.592;2022-08-19T05:17:23;20.58;;;11.25;;
62861;SDS011;48953;53.110;5.592;2022-08-19T05:19:49;20.77;;;10.52;;
62861;SDS011;48953;53.110;5.592;2022-08-19T05:22:33;20.73;;;11.38;;
62861;SDS011;48953;53.110;5.592;2022-08-19T05:25:05;18.90;;;9.68;;
62861;SDS011;48953;53.110;5.592;2022-08-19T05:27:33;16.67;;;10.68;;
62861;SDS011;48953;53.110;5.592;2022-08-19T05:30:00;18.73;;;10.57;;
62861;SDS011;48953;53.110;5.592;2022-08-19T05:32:26;20.92;;;10.95;;
62861;SDS011;48953;53.110;5.592;2022-08-19T05:34:52;22.10;;;11.52;;
62861;SDS011;48953;53.110;5.592;2022-08-19T05:37:18;19.98;;;10.50;;
62861;SDS011;48953;53.110;5.592;2022-08-19T05:39:44;18.08;;;10.93;;
62861;SDS011;48953;53.110;5.592;2022-08-19T05:42:10;14.88;;;9.95;;
62861;SDS011;48953;53.110;5.592;2022-08-19T05:44:38;13.10;;;9.57;;
62861;SDS011;48953;53.110;5.592;2022-08-19T05:47:08;15.02;;;9.60;;
62861;SDS011;48953;53.110;5.592;2022-08-19T05:49:34;12.90;;;9.23;;
62861;SDS011;48953;53.110;5.592;2022-08-19T05:52:03;12.75;;;9.25;;
62861;SDS011;48953;53.110;5.592;2022-08-19T05:54:30;11.98;;;8.75;;
62861;SDS011;48953;53.110;5.592;2022-08-19T05:56:56;12.65;;;8.55;;
62861;SDS011;48953;53.110;5.592;2022-08-19T05:59:22;14.45;;;9.07;;
62861;SDS011;48953;53.110;5.592;2022-08-19T06:01:49;16.38;;;10.32;;
62861;SDS011;48953;53.110;5.592;2022-08-19T06:04:19;13.02;;;9.70;;
62861;SDS011;48953;53.110;5.592;2022-08-19T06:06:46;12.02;;;8.88;;
62861;SDS011;48953;53.110;5.592;2022-08-19T06:09:13;11.55;;;8.73;;
62861;SDS011;48953;53.110;5.592;2022-08-19T06:14:09;13.63;;;9.10;;
62861;SDS011;48953;53.110;5.592;2022-08-19T06:16:38;14.07;;;9.82;;
62861;SDS011;48953;53.110;5.592;2022-08-19T06:19:06;13.80;;;10.18;;
62861;SDS011;48953;53.110;5.592;2022-08-19T06:21:34;13.60;;;10.57;;
62861;SDS011;48953;53.110;5.592;2022-08-19T06:24:02;13.07;;;10.30;;
62861;SDS011;48953;53.110;5.592;2022-08-19T06:26:29;12.90;;;8.77;;
62861;SDS011;48953;53.110;5.592;2022-08-19T06:28:55;14.88;;;11.52;;
62861;SDS011;48953;53.110;5.592;2022-08-19T06:31:23;16.15;;;11.57;;
62861;SDS011;48953;53.110;5.592;2022-08-19T06:33:51;14.20;;;10.45;;
62861;SDS011;48953;53.110;5.592;2022-08-19T06:36:21;13.10;;;10.10;;
62861;SDS011;48953;53.110;5.592;2022-08-19T06:38:53;12.68;;;9.63;;
62861;SDS011;48953;53.110;5.592;2022-08-19T06:41:19;13.90;;;9.90;;
62861;SDS011;48953;53.110;5.592;2022-08-19T06:43:45;15.02;;;11.02;;
62861;SDS011;48953;53.110;5.592;2022-08-19T06:46:12;12.50;;;10.35;;
62861;SDS011;48953;53.110;5.592;2022-08-19T06:48:40;11.57;;;10.30;;
62861;SDS011;48953;53.110;5.592;2022-08-19T06:51:06;11.30;;;9.73;;
62861;SDS011;48953;53.110;5.592;2022-08-19T06:53:32;12.45;;;9.57;;
62861;SDS011;48953;53.110;5.592;2022-08-19T06:55:58;17.05;;;11.98;;
62861;SDS011;48953;53.110;5.592;2022-08-19T06:58:27;15.13;;;12.65;;
62861;SDS011;48953;53.110;5.592;2022-08-19T07:03:28;15.13;;;12.77;;
62861;SDS011;48953;53.110;5.592;2022-08-19T07:05:56;16.50;;;13.13;;
62861;SDS011;48953;53.110;5.592;2022-08-19T07:08:22;14.95;;;13.35;;
62861;SDS011;48953;53.110;5.592;2022-08-19T07:10:49;15.98;;;13.63;;
62861;SDS011;48953;53.110;5.592;2022-08-19T07:13:14;15.75;;;14.05;;
62861;SDS011;48953;53.110;5.592;2022-08-19T07:15:40;15.23;;;13.63;;
62861;SDS011;48953;53.110;5.592;2022-08-19T07:18:06;17.42;;;15.32;;
62861;SDS011;48953;53.110;5.592;2022-08-19T07:20:31;15.80;;;13.90;;
62861;SDS011;48953;53.110;5.592;2022-08-19T07:22:57;18.42;;;16.45;;
62861;SDS011;48953;53.110;5.592;2022-08-19T07:25:23;19.70;;;16.02;;
62861;SDS011;48953;53.110;5.592;2022-08-19T07:27:49;21.90;;;17.48;;
62861;SDS011;48953;53.110;5.592;2022-08-19T07:30:15;19.45;;;16.60;;
62861;SDS011;48953;53.110;5.592;2022-08-19T07:32:41;20.35;;;18.10;;
62861;SDS011;48953;53.110;5.592;2022-08-19T07:35:08;22.55;;;19.42;;
62861;SDS011;48953;53.110;5.592;2022-08-19T07:37:34;23.52;;;19.73;;
62861;SDS011;48953;53.110;5.592;2022-08-19T07:40:02;24.58;;;20.35;;
62861;SDS011;48953;53.110;5.592;2022-08-19T07:42:29;27.27;;;22.08;;
62861;SDS011;48953;53.110;5.592;2022-08-19T07:44:55;28.70;;;23.13;;
62861;SDS011;48953;53.110;5.592;2022-08-19T07:47:20;25.83;;;22.77;;
62861;SDS011;48953;53.110;5.592;2022-08-19T07:49:46;29.35;;;24.00;;
62861;SDS011;48953;53.110;5.592;2022-08-19T07:52:12;27.98;;;22.75;;
62861;SDS011;48953;53.110;5.592;2022-08-19T07:54:38;27.10;;;22.98;;
62861;SDS011;48953;53.110;5.592;2022-08-19T07:57:04;24.38;;;19.88;;
62861;SDS011;48953;53.110;5.592;2022-08-19T07:59:31;23.33;;;20.40;;
62861;SDS011;48953;53.110;5.592;2022-08-19T08:01:57;24.10;;;20.88;;
62861;SDS011;48953;53.110;5.592;2022-08-19T08:04:25;23.77;;;19.80;;
62861;SDS011;48953;53.110;5.592;2022-08-19T08:07:09;27.60;;;20.95;;
62861;SDS011;48953;53.110;5.592;2022-08-19T08:09:54;23.15;;;20.58;;
62861;SDS011;48953;53.110;5.592;2022-08-19T08:12:27;22.88;;;19.20;;
62861;SDS011;48953;53.110;5.592;2022-08-19T08:14:57;20.60;;;18.05;;
62861;SDS011;48953;53.110;5.592;2022-08-19T08:17:27;21.60;;;18.25;;
62861;SDS011;48953;53.110;5.592;2022-08-19T08:19:54;18.77;;;15.10;;
62861;SDS011;48953;53.110;5.592;2022-08-19T08:22:21;17.38;;;15.05;;
62861;SDS011;48953;53.110;5.592;2022-08-19T08:25:07;18.48;;;16.05;;
62861;SDS011;48953;53.110;5.592;2022-08-19T08:27:37;21.10;;;16.92;;
62861;SDS011;48953;53.110;5.592;2022-08-19T08:30:05;19.05;;;16.33;;
62861;SDS011;48953;53.110;5.592;2022-08-19T08:32:38;20.23;;;16.17;;
62861;SDS011;48953;53.110;5.592;2022-08-19T08:35:05;16.45;;;12.65;;
62861;SDS011;48953;53.110;5.592;2022-08-19T08:37:32;16.17;;;12.20;;
62861;SDS011;48953;53.110;5.592;2022-08-19T08:39:58;14.85;;;12.07;;
62861;SDS011;48953;53.110;5.592;2022-08-19T08:42:30;17.63;;;13.00;;
62861;SDS011;48953;53.110;5.592;2022-08-19T08:45:08;14.88;;;12.05;;
62861;SDS011;48953;53.110;5.592;2022-08-19T08:47:40;15.52;;;11.82;;
62861;SDS011;48953;53.110;5.592;2022-08-19T08:53:01;17.00;;;11.85;;
62861;SDS011;48953;53.110;5.592;2022-08-19T08:55:30;16.40;;;12.82;;
62861;SDS011;48953;53.110;5.592;2022-08-19T08:58:04;18.10;;;13.02;;
62861;SDS011;48953;53.110;5.592;2022-08-19T09:00:37;17.58;;;12.80;;
62861;SDS011;48953;53.110;5.592;2022-08-19T09:03:10;15.88;;;12.50;;
62861;SDS011;48953;53.110;5.592;2022-08-19T09:14:27;15.20;;;11.43;;
62861;SDS011;48953;53.110;5.592;2022-08-19T09:17:00;14.52;;;11.43;;
62861;SDS011;48953;53.110;5.592;2022-08-19T09:19:28;14.10;;;10.95;;
62861;SDS011;48953;53.110;5.592;2022-08-19T09:21:54;13.77;;;9.93;;
62861;SDS011;48953;53.110;5.592;2022-08-19T09:24:20;12.80;;;9.65;;
62861;SDS011;48953;53.110;5.592;2022-08-19T09:26:45;17.08;;;12.10;;
62861;SDS011;48953;53.110;5.592;2022-08-19T09:29:11;13.77;;;10.68;;
62861;SDS011;48953;53.110;5.592;2022-08-19T09:31:37;14.32;;;11.05;;
62861;SDS011;48953;53.110;5.592;2022-08-19T09:34:03;14.05;;;9.98;;
62861;SDS011;48953;53.110;5.592;2022-08-19T09:36:30;15.82;;;10.38;;
62861;SDS011;48953;53.110;5.592;2022-08-19T09:38:58;16.50;;;10.73;;
62861;SDS011;48953;53.110;5.592;2022-08-19T09:41:25;16.30;;;10.68;;
62861;SDS011;48953;53.110;5.592;2022-08-19T09:43:52;15.98;;;11.43;;
62861;SDS011;48953;53.110;5.592;2022-08-19T09:46:20;17.98;;;11.88;;
62861;SDS011;48953;53.110;5.592;2022-08-19T09:48:46;14.13;;;11.50;;
62861;SDS011;48953;53.110;5.592;2022-08-19T09:51:14;17.92;;;11.75;;
62861;SDS011;48953;53.110;5.592;2022-08-19T09:53:45;13.35;;;10.40;;
62861;SDS011;48953;53.110;5.592;2022-08-19T09:56:12;11.93;;;10.35;;
62861;SDS011;48953;53.110;5.592;2022-08-19T09:58:38;14.20;;;10.02;;
62861;SDS011;48953;53.110;5.592;2022-08-19T10:01:04;11.15;;;8.77;;
62861;SDS011;48953;53.110;5.592;2022-08-19T10:03:32;12.88;;;9.50;;
62861;SDS011;48953;53.110;5.592;2022-08-19T10:06:00;13.93;;;10.07;;
62861;SDS011;48953;53.110;5.592;2022-08-19T10:08:29;11.00;;;8.60;;
62861;SDS011;48953;53.110;5.592;2022-08-19T10:10:58;15.15;;;10.23;;
62861;SDS011;48953;53.110;5.592;2022-08-19T10:13:26;12.23;;;9.68;;
62861;SDS011;48953;53.110;5.592;2022-08-19T10:15:54;11.65;;;8.77;;
62861;SDS011;48953;53.110;5.592;2022-08-19T10:18:21;11.02;;;9.20;;
62861;SDS011;48953;53.110;5.592;2022-08-19T10:20:49;11.50;;;8.82;;
62861;SDS011;48953;53.110;5.592;2022-08-19T10:23:17;14.68;;;10.45;;
62861;SDS011;48953;53.110;5.592;2022-08-19T10:25:44;11.10;;;9.00;;
62861;SDS011;48953;53.110;5.592;2022-08-19T10:28:10;12.63;;;9.18;;
62861;SDS011;48953;53.110;5.592;2022-08-19T10:30:39;12.60;;;9.02;;
62861;SDS011;48953;53.110;5.592;2022-08-19T10:33:05;12.05;;;9.75;;
62861;SDS011;48953;53.110;5.592;2022-08-19T10:35:31;12.13;;;9.88;;
62861;SDS011;48953;53.110;5.592;2022-08-19T10:37:57;15.48;;;10.55;;
62861;SDS011;48953;53.110;5.592;2022-08-19T10:40:27;13.18;;;9.57;;
62861;SDS011;48953;53.110;5.592;2022-08-19T10:42:53;15.32;;;10.98;;
62861;SDS011;48953;53.110;5.592;2022-08-19T10:45:20;14.05;;;10.20;;
62861;SDS011;48953;53.110;5.592;2022-08-19T10:47:48;11.18;;;9.60;;
62861;SDS011;48953;53.110;5.592;2022-08-19T10:50:13;11.38;;;9.02;;
62861;SDS011;48953;53.110;5.592;2022-08-19T10:53:02;13.68;;;9.90;;
62861;SDS011;48953;53.110;5.592;2022-08-19T10:55:29;13.45;;;9.07;;
62861;SDS011;48953;53.110;5.592;2022-08-19T10:58:14;10.27;;;7.65;;
62861;SDS011;48953;53.110;5.592;2022-08-19T11:00:42;13.75;;;9.30;;
62861;SDS011;48953;53.110;5.592;2022-08-19T11:03:08;10.82;;;8.30;;
62861;SDS011;48953;53.110;5.592;2022-08-19T11:05:34;11.45;;;9.07;;
62861;SDS011;48953;53.110;5.592;2022-08-19T11:08:02;10.52;;;9.32;;
62861;SDS011;48953;53.110;5.592;2022-08-19T11:10:28;13.40;;;10.00;;
62861;SDS011;48953;53.110;5.592;2022-08-19T11:12:53;12.38;;;8.80;;
62861;SDS011;48953;53.110;5.592;2022-08-19T11:15:20;10.93;;;7.82;;
62861;SDS011;48953;53.110;5.592;2022-08-19T11:17:46;10.93;;;8.48;;
62861;SDS011;48953;53.110;5.592;2022-08-19T11:20:12;11.40;;;8.77;;
62861;SDS011;48953;53.110;5.592;2022-08-19T11:22:39;11.55;;;8.32;;
62861;SDS011;48953;53.110;5.592;2022-08-19T11:25:05;14.20;;;9.77;;
62861;SDS011;48953;53.110;5.592;2022-08-19T11:27:32;14.63;;;9.32;;
62861;SDS011;48953;53.110;5.592;2022-08-19T11:29:58;10.15;;;8.52;;
62861;SDS011;48953;53.110;5.592;2022-08-19T11:32:25;15.10;;;11.13;;
62861;SDS011;48953;53.110;5.592;2022-08-19T11:34:51;11.68;;;8.60;;
62861;SDS011;48953;53.110;5.592;2022-08-19T11:37:16;10.38;;;8.23;;
62861;SDS011;48953;53.110;5.592;2022-08-19T11:39:42;11.25;;;8.07;;
62861;SDS011;48953;53.110;5.592;2022-08-19T11:42:08;12.20;;;7.55;;
62861;SDS011;48953;53.110;5.592;2022-08-19T11:44:52;10.85;;;8.20;;
62861;SDS011;48953;53.110;5.592;2022-08-19T11:47:18;9.93;;;7.50;;
62861;SDS011;48953;53.110;5.592;2022-08-19T11:49:45;9.32;;;7.18;;
62861;SDS011;48953;53.110;5.592;2022-08-19T11:52:11;8.07;;;6.15;;
62861;SDS011;48953;53.110;5.592;2022-08-19T11:54:37;9.68;;;6.65;;
62861;SDS011;48953;53.110;5.592;2022-08-19T11:57:03;10.07;;;6.72;;
62861;SDS011;48953;53.110;5.592;2022-08-19T11:59:29;7.45;;;5.93;;
62861;SDS011;48953;53.110;5.592;2022-08-19T12:01:55;9.93;;;6.60;;
62861;SDS011;48953;53.110;5.592;2022-08-19T12:04:21;8.40;;;6.07;;
62861;SDS011;48953;53.110;5.592;2022-08-19T12:06:47;7.20;;;6.30;;
62861;SDS011;48953;53.110;5.592;2022-08-19T12:09:13;10.85;;;7.40;;
62861;SDS011;48953;53.110;5.592;2022-08-19T12:11:40;8.15;;;6.88;;
62861;SDS011;48953;53.110;5.592;2022-08-19T12:14:08;8.68;;;7.10;;
62861;SDS011;48953;53.110;5.592;2022-08-19T12:16:35;10.57;;;7.57;;
62861;SDS011;48953;53.110;5.592;2022-08-19T12:19:01;11.35;;;7.53;;
62861;SDS011;48953;53.110;5.592;2022-08-19T12:21:29;8.55;;;7.43;;
62861;SDS011;48953;53.110;5.592;2022-08-19T12:23:57;9.20;;;7.47;;
62861;SDS011;48953;53.110;5.592;2022-08-19T12:26:24;13.90;;;7.82;;
62861;SDS011;48953;53.110;5.592;2022-08-19T12:28:51;9.60;;;8.50;;
62861;SDS011;48953;53.110;5.592;2022-08-19T12:31:18;11.00;;;9.00;;
62861;SDS011;48953;53.110;5.592;2022-08-19T12:33:44;11.52;;;9.27;;
62861;SDS011;48953;53.110;5.592;2022-08-19T12:36:11;13.07;;;8.60;;
62861;SDS011;48953;53.110;5.592;2022-08-19T12:38:38;11.55;;;8.68;;
62861;SDS011;48953;53.110;5.592;2022-08-19T12:41:05;10.00;;;7.63;;
62861;SDS011;48953;53.110;5.592;2022-08-19T12:43:35;9.43;;;7.80;;
62861;SDS011;48953;53.110;5.592;2022-08-19T12:46:02;10.63;;;8.10;;
62861;SDS011;48953;53.110;5.592;2022-08-19T12:48:31;11.77;;;8.27;;
62861;SDS011;48953;53.110;5.592;2022-08-19T12:50:57;10.32;;;8.35;;
62861;SDS011;48953;53.110;5.592;2022-08-19T12:53:23;12.15;;;8.52;;
62861;SDS011;48953;53.110;5.592;2022-08-19T12:55:56;9.82;;;7.82;;
62861;SDS011;48953;53.110;5.592;2022-08-19T12:58:23;11.02;;;7.47;;
62861;SDS011;48953;53.110;5.592;2022-08-19T13:00:48;10.15;;;7.43;;
62861;SDS011;48953;53.110;5.592;2022-08-19T13:03:14;8.25;;;7.28;;
62861;SDS011;48953;53.110;5.592;2022-08-19T13:05:40;11.30;;;8.82;;
62861;SDS011;48953;53.110;5.592;2022-08-19T13:08:06;7.70;;;6.57;;
62861;SDS011;48953;53.110;5.592;2022-08-19T13:10:32;8.98;;;6.68;;
62861;SDS011;48953;53.110;5.592;2022-08-19T13:13:00;8.23;;;6.47;;
62861;SDS011;48953;53.110;5.592;2022-08-19T13:15:27;8.45;;;7.13;;
62861;SDS011;48953;53.110;5.592;2022-08-19T13:17:56;8.35;;;6.63;;
62861;SDS011;48953;53.110;5.592;2022-08-19T13:20:23;10.60;;;8.05;;
62861;SDS011;48953;53.110;5.592;2022-08-19T13:22:49;12.68;;;7.22;;
62861;SDS011;48953;53.110;5.592;2022-08-19T13:25:15;9.98;;;7.60;;
62861;SDS011;48953;53.110;5.592;2022-08-19T13:27:42;9.18;;;8.27;;
62861;SDS011;48953;53.110;5.592;2022-08-19T13:30:10;9.60;;;7.28;;
62861;SDS011;48953;53.110;5.592;2022-08-19T13:32:55;8.60;;;7.22;;
62861;SDS011;48953;53.110;5.592;2022-08-19T13:35:37;10.50;;;8.02;;
62861;SDS011;48953;53.110;5.592;2022-08-19T13:38:04;10.40;;;8.15;;
62861;SDS011;48953;53.110;5.592;2022-08-19T13:40:30;9.75;;;8.27;;
62861;SDS011;48953;53.110;5.592;2022-08-19T13:42:59;10.83;;;7.80;;
62861;SDS011;48953;53.110;5.592;2022-08-19T13:45:27;7.53;;;6.55;;
62861;SDS011;48953;53.110;5.592;2022-08-19T13:47:54;9.30;;;7.03;;
62861;SDS011;48953;53.110;5.592;2022-08-19T13:50:25;7.80;;;6.43;;
62861;SDS011;48953;53.110;5.592;2022-08-19T13:52:54;8.73;;;6.72;;
62861;SDS011;48953;53.110;5.592;2022-08-19T13:55:20;8.75;;;6.55;;
62861;SDS011;48953;53.110;5.592;2022-08-19T13:57:49;9.15;;;5.35;;
62861;SDS011;48953;53.110;5.592;2022-08-19T14:00:19;5.28;;;4.00;;
62861;SDS011;48953;53.110;5.592;2022-08-19T14:02:46;5.43;;;4.20;;
62861;SDS011;48953;53.110;5.592;2022-08-19T14:05:15;5.17;;;4.37;;
62861;SDS011;48953;53.110;5.592;2022-08-19T14:07:41;6.13;;;4.55;;
62861;SDS011;48953;53.110;5.592;2022-08-19T14:10:08;5.78;;;4.97;;
62861;SDS011;48953;53.110;5.592;2022-08-19T14:12:35;4.60;;;4.10;;
62861;SDS011;48953;53.110;5.592;2022-08-19T14:15:01;4.40;;;2.90;;
62861;SDS011;48953;53.110;5.592;2022-08-19T14:17:28;3.22;;;2.90;;
62861;SDS011;48953;53.110;5.592;2022-08-19T14:20:00;2.85;;;2.65;;
62861;SDS011;48953;53.110;5.592;2022-08-19T14:22:30;2.45;;;2.17;;
62861;SDS011;48953;53.110;5.592;2022-08-19T14:24:56;2.15;;;1.80;;
62861;SDS011;48953;53.110;5.592;2022-08-19T14:27:22;1.92;;;1.55;;
62861;SDS011;48953;53.110;5.592;2022-08-19T14:29:50;1.77;;;1.67;;
62861;SDS011;48953;53.110;5.592;2022-08-19T14:32:16;1.63;;;1.52;;
62861;SDS011;48953;53.110;5.592;2022-08-19T14:34:42;2.78;;;1.60;;
62861;SDS011;48953;53.110;5.592;2022-08-19T14:37:11;2.20;;;2.00;;
62861;SDS011;48953;53.110;5.592;2022-08-19T14:39:38;1.73;;;1.63;;
62861;SDS011;48953;53.110;5.592;2022-08-19T14:42:06;2.08;;;1.70;;
62861;SDS011;48953;53.110;5.592;2022-08-19T14:44:34;1.58;;;1.17;;
62861;SDS011;48953;53.110;5.592;2022-08-19T14:46:59;1.65;;;1.50;;
62861;SDS011;48953;53.110;5.592;2022-08-19T14:49:25;1.50;;;1.40;;
62861;SDS011;48953;53.110;5.592;2022-08-19T14:51:51;2.47;;;1.60;;
62861;SDS011;48953;53.110;5.592;2022-08-19T14:54:17;1.92;;;1.17;;
62861;SDS011;48953;53.110;5.592;2022-08-19T14:56:44;2.78;;;1.80;;
62861;SDS011;48953;53.110;5.592;2022-08-19T14:59:12;2.00;;;1.77;;
62861;SDS011;48953;53.110;5.592;2022-08-19T15:01:37;1.98;;;1.75;;